createdAt,value
2018-05-31T00:01:05.664Z,100050.48
2018-05-31T00:03:33.128Z,100043.20
2018-05-31T00:06:00.953Z,100041.54
2018-05-31T00:08:28.408Z,100042.05
2018-05-31T00:10:55.871Z,100043.29
2018-05-31T00:13:23.361Z,100041.09
2018-05-31T00:15:50.824Z,100043.46
2018-05-31T00:18:18.493Z,100057.48
2018-05-31T00:20:45.956Z,100069.71
2018-05-31T00:23:13.411Z,100075.98
2018-05-31T00:25:40.917Z,100070.68
2018-05-31T00:28:08.407Z,100065.67
2018-05-31T00:30:36.003Z,100070.23
2018-05-31T00:33:03.468Z,100067.14
2018-05-31T00:35:30.939Z,100059.25
2018-05-31T00:37:58.425Z,100054.92
2018-05-31T00:40:25.891Z,100052.55
2018-05-31T00:42:53.395Z,100051.34
2018-05-31T00:45:20.849Z,100046.12
2018-05-31T00:47:48.308Z,100049.11
2018-05-31T00:50:15.787Z,100049.42
2018-05-31T00:52:43.251Z,100043.51
2018-05-31T00:55:10.907Z,100035.23
2018-05-31T00:57:38.368Z,100048.12
2018-05-31T01:00:05.840Z,100051.64
2018-05-31T01:02:33.320Z,100052.45
2018-05-31T01:05:00.772Z,100051.14
2018-05-31T01:07:28.460Z,100055.06
2018-05-31T01:09:55.922Z,100060.51
2018-05-31T01:12:23.456Z,100058.59
2018-05-31T01:14:50.940Z,100054.54
2018-05-31T01:17:18.404Z,100055.27
2018-05-31T01:19:45.899Z,100056.95
2018-05-31T01:22:13.371Z,100056.88
2018-05-31T01:24:40.851Z,100060.97
2018-05-31T01:27:08.361Z,100058.47
2018-05-31T01:29:35.824Z,100062.98
2018-05-31T01:32:03.359Z,100055.59
2018-05-31T01:34:30.772Z,100050.80
2018-05-31T01:36:58.239Z,100046.63
2018-05-31T01:39:25.720Z,100046.00
2018-05-31T01:41:53.179Z,100047.73
2018-05-31T01:44:20.679Z,100055.16
2018-05-31T01:46:48.161Z,100051.41
2018-05-31T01:49:15.780Z,100050.11
2018-05-31T01:51:43.239Z,100049.09
2018-05-31T01:54:10.704Z,100045.52
2018-05-31T01:56:38.179Z,100038.15
2018-05-31T01:59:05.655Z,100035.61
2018-05-31T02:01:33.310Z,100040.64
2018-05-31T02:04:00.795Z,100055.20
2018-05-31T02:06:28.256Z,100059.53
2018-05-31T02:08:55.756Z,100071.96
2018-05-31T02:11:23.216Z,100069.50
2018-05-31T02:13:50.864Z,100080.83
2018-05-31T02:16:18.317Z,100088.11
2018-05-31T02:18:45.788Z,100086.02
2018-05-31T02:21:13.288Z,100079.13
2018-05-31T02:23:40.748Z,100070.53
2018-05-31T02:26:08.391Z,100068.09
2018-05-31T02:28:35.871Z,100067.00
2018-05-31T02:31:03.335Z,100060.58
2018-05-31T02:33:30.816Z,100059.92
2018-05-31T02:35:58.280Z,100050.52
2018-05-31T02:38:25.769Z,100051.30
2018-05-31T02:40:53.243Z,100050.36
2018-05-31T02:43:20.692Z,100053.45
2018-05-31T02:45:48.171Z,100050.41
2018-05-31T02:48:15.631Z,100056.14
2018-05-31T02:50:43.313Z,100060.69
2018-05-31T02:53:10.763Z,100041.41
2018-05-31T02:55:38.227Z,100036.69
2018-05-31T02:58:05.716Z,100029.48
2018-05-31T03:00:33.180Z,100021.31
2018-05-31T03:03:00.968Z,100015.82
2018-05-31T03:05:28.432Z,100014.34
2018-05-31T03:07:55.912Z,100016.56
2018-05-31T03:10:23.391Z,100012.05
2018-05-31T03:12:50.859Z,100009.13
2018-05-31T03:15:18.644Z,100013.37
2018-05-31T03:17:46.107Z,100025.22
2018-05-31T03:20:13.603Z,100033.97
2018-05-31T03:22:41.085Z,100030.47
2018-05-31T03:25:08.562Z,100027.09
2018-05-31T03:27:36.485Z,100032.80
2018-05-31T03:30:03.940Z,100036.28
2018-05-31T03:32:31.419Z,100024.81
2018-05-31T03:34:58.914Z,100027.95
2018-05-31T03:37:28.211Z,100019.66
2018-05-31T03:39:55.890Z,100022.67
2018-05-31T03:42:23.371Z,100023.58
2018-05-31T03:44:50.828Z,100030.03
2018-05-31T03:47:18.333Z,100029.86
2018-05-31T03:49:45.838Z,100027.15
2018-05-31T03:52:13.459Z,100026.47
2018-05-31T03:54:40.963Z,100021.61
2018-05-31T03:57:08.431Z,100011.77
2018-05-31T03:59:35.912Z,100016.06
2018-05-31T04:02:03.382Z,100015.69
2018-05-31T04:04:31.095Z,100020.55
2018-05-31T04:06:58.551Z,100017.48
2018-05-31T04:09:26.863Z,100016.08
2018-05-31T04:11:54.371Z,100008.84
2018-05-31T04:14:21.835Z,100008.16
2018-05-31T04:16:49.571Z,99996.63
2018-05-31T04:19:17.032Z,99994.17
2018-05-31T04:21:44.486Z,99984.47
2018-05-31T04:24:11.975Z,99994.47
2018-05-31T04:26:39.439Z,99998.95
2018-05-31T04:29:07.312Z,100000.23
2018-05-31T04:31:34.767Z,99999.63
2018-05-31T04:34:02.224Z,99989.31
2018-05-31T04:36:29.727Z,99984.07
2018-05-31T04:38:57.203Z,99985.97
2018-05-31T04:41:24.897Z,99975.58
2018-05-31T04:43:52.356Z,99983.40
2018-05-31T04:46:19.818Z,99979.33
2018-05-31T04:48:47.315Z,99979.13
2018-05-31T04:51:14.798Z,99975.63
2018-05-31T04:53:42.428Z,99975.20
2018-05-31T04:56:09.883Z,99975.88
2018-05-31T04:58:37.356Z,99987.33
2018-05-31T05:01:04.827Z,99988.57
2018-05-31T05:03:32.305Z,99990.05
2018-05-31T05:06:00.088Z,99974.35
2018-05-31T05:08:27.543Z,99971.25
2018-05-31T05:10:55.012Z,99969.97
2018-05-31T05:13:22.479Z,99977.70
2018-05-31T05:15:49.944Z,99972.73
2018-05-31T05:18:17.492Z,99973.70
2018-05-31T05:20:44.940Z,99973.91
2018-05-31T05:23:12.404Z,99969.12
2018-05-31T05:25:39.875Z,99975.61
2018-05-31T05:28:07.330Z,99967.81
2018-05-31T05:30:34.901Z,99963.20
2018-05-31T05:33:02.362Z,99965.25
2018-05-31T05:35:29.819Z,99957.05
2018-05-31T05:37:57.303Z,99960.63
2018-05-31T05:40:24.763Z,99955.69
2018-05-31T05:42:52.244Z,99957.78
2018-05-31T05:45:19.695Z,99960.85
2018-05-31T05:47:47.152Z,99962.69
2018-05-31T05:50:14.655Z,99966.66
2018-05-31T05:52:42.091Z,99966.44
2018-05-31T05:55:09.584Z,99969.45
2018-05-31T05:57:37.052Z,99970.00
2018-05-31T06:00:04.521Z,99982.66
2018-05-31T06:02:31.999Z,99989.09
2018-05-31T06:04:59.520Z,99996.41
2018-05-31T06:07:27.015Z,100002.82
2018-05-31T06:09:54.505Z,100002.55
2018-05-31T06:12:21.939Z,100002.73
2018-05-31T06:14:49.415Z,100005.84
2018-05-31T06:17:16.869Z,100012.63
2018-05-31T06:19:44.544Z,100014.23
2018-05-31T06:22:11.951Z,100024.23
2018-05-31T06:24:39.520Z,100023.50
2018-05-31T06:27:06.968Z,100031.39
2018-05-31T06:29:34.463Z,100035.91
2018-05-31T06:32:02.145Z,100040.16
2018-05-31T06:34:29.608Z,100044.25
2018-05-31T06:36:57.059Z,100052.85
2018-05-31T06:39:24.549Z,100065.02
2018-05-31T06:41:52.007Z,100063.39
2018-05-31T06:44:19.483Z,100062.23
2018-05-31T06:46:46.972Z,100061.63
2018-05-31T06:49:14.428Z,100061.89
2018-05-31T06:51:41.891Z,100064.77
2018-05-31T06:54:09.373Z,100064.34
2018-05-31T06:56:36.847Z,100067.05
2018-05-31T06:59:04.299Z,100065.48
2018-05-31T07:01:31.748Z,100071.58
2018-05-31T07:03:59.239Z,100080.09
2018-05-31T07:06:26.683Z,100081.73
2018-05-31T07:08:54.404Z,100082.09
2018-05-31T07:11:21.859Z,100086.87
2018-05-31T07:13:49.323Z,100088.88
2018-05-31T07:16:16.812Z,100091.41
2018-05-31T07:18:44.276Z,100092.76
2018-05-31T07:21:11.778Z,100095.20
2018-05-31T07:23:39.252Z,100094.05
2018-05-31T07:26:06.695Z,100093.27
2018-05-31T07:28:34.159Z,100101.43
2018-05-31T07:31:01.608Z,100097.96
2018-05-31T07:33:29.199Z,100092.91
2018-05-31T07:35:56.675Z,100094.77
2018-05-31T07:38:24.136Z,100093.33
2018-05-31T07:40:51.600Z,100098.93
2018-05-31T07:43:19.048Z,100104.94
2018-05-31T07:45:46.783Z,100111.51
2018-05-31T07:48:14.276Z,100113.34
2018-05-31T07:50:41.830Z,100110.39
2018-05-31T07:53:09.305Z,100111.81
2018-05-31T07:55:36.767Z,100105.80
2018-05-31T07:58:04.400Z,100106.41
2018-05-31T08:00:31.845Z,100105.94
2018-05-31T08:02:59.302Z,100104.59
2018-05-31T08:05:26.772Z,100108.15
2018-05-31T08:07:54.222Z,100107.56
2018-05-31T08:10:21.677Z,100106.84
2018-05-31T08:12:49.325Z,100106.53
2018-05-31T08:15:16.775Z,100109.81
2018-05-31T08:17:44.223Z,100108.82
2018-05-31T08:20:11.692Z,100106.80
2018-05-31T08:22:39.139Z,100108.52
2018-05-31T08:25:06.780Z,100110.55
2018-05-31T08:27:34.230Z,100119.59
2018-05-31T08:30:01.680Z,100122.80
2018-05-31T08:32:29.144Z,100122.53
2018-05-31T08:34:56.631Z,100121.66
2018-05-31T08:37:24.123Z,100123.84
2018-05-31T08:39:51.568Z,100125.08
2018-05-31T08:42:19.024Z,100132.74
2018-05-31T08:44:46.496Z,100127.54
2018-05-31T08:47:13.948Z,100131.45
2018-05-31T08:49:41.592Z,100133.19
2018-05-31T08:52:09.040Z,100135.20
2018-05-31T08:54:36.479Z,100135.36
2018-05-31T08:57:04.040Z,100132.41
2018-05-31T08:59:31.500Z,100129.72
2018-05-31T09:01:58.995Z,100125.98
2018-05-31T09:04:26.456Z,100125.82
2018-05-31T09:06:53.909Z,100122.55
2018-05-31T09:09:21.401Z,100128.04
2018-05-31T09:11:48.860Z,100127.05
2018-05-31T09:14:16.336Z,100128.28
2018-05-31T09:16:43.784Z,100126.64
2018-05-31T09:19:11.236Z,100126.98
2018-05-31T09:21:38.701Z,100117.81
2018-05-31T09:24:06.181Z,100118.95
2018-05-31T09:26:33.664Z,100113.16
2018-05-31T09:29:01.125Z,100114.66
2018-05-31T09:31:28.588Z,100118.22
2018-05-31T09:33:56.059Z,100108.62
2018-05-31T09:36:23.523Z,100105.02
2018-05-31T09:38:51.171Z,100110.58
2018-05-31T09:41:18.636Z,100112.47
2018-05-31T09:43:46.092Z,100112.93
2018-05-31T09:46:13.560Z,100111.67
2018-05-31T09:48:41.011Z,100105.71
2018-05-31T09:51:08.643Z,100108.27
2018-05-31T09:53:36.104Z,100105.70
2018-05-31T09:56:03.565Z,100108.23
2018-05-31T09:58:31.051Z,100110.59
2018-05-31T10:00:58.508Z,100104.92
2018-05-31T10:03:26.180Z,100102.69
2018-05-31T10:05:53.632Z,100103.34
2018-05-31T10:08:21.174Z,100100.45
2018-05-31T10:10:48.661Z,100106.68
2018-05-31T10:13:16.112Z,100099.28
2018-05-31T10:15:43.588Z,100110.89
2018-05-31T10:18:11.036Z,100106.88
2018-05-31T10:20:38.505Z,100098.30
2018-05-31T10:23:05.997Z,100099.98
2018-05-31T10:25:33.470Z,100096.91
2018-05-31T10:28:01.199Z,100094.26
2018-05-31T10:30:28.655Z,100101.80
2018-05-31T10:32:56.100Z,100093.40
2018-05-31T10:35:23.584Z,100092.87
2018-05-31T10:37:51.039Z,100095.98
2018-05-31T10:40:18.605Z,100090.83
2018-05-31T10:42:46.065Z,100091.02
2018-05-31T10:45:13.554Z,100091.02
2018-05-31T10:47:41.057Z,100091.06
2018-05-31T10:50:08.528Z,100088.09
2018-05-31T10:52:36.212Z,100090.86
2018-05-31T10:55:03.684Z,100082.10
2018-05-31T10:57:31.135Z,100082.16
2018-05-31T10:59:58.604Z,100080.73
2018-05-31T11:02:26.048Z,100084.97
2018-05-31T11:04:53.956Z,100079.69
2018-05-31T11:07:21.412Z,100075.55
2018-05-31T11:09:48.859Z,100071.20
2018-05-31T11:12:16.323Z,100070.31
2018-05-31T11:14:43.783Z,100066.44
2018-05-31T11:17:11.396Z,100064.83
2018-05-31T11:19:38.879Z,100066.99
2018-05-31T11:22:06.327Z,100063.55
2018-05-31T11:24:33.791Z,100053.53
2018-05-31T11:27:01.260Z,100056.10
2018-05-31T11:29:28.969Z,100052.64
2018-05-31T11:31:56.420Z,100055.50
2018-05-31T11:34:23.896Z,100042.31
2018-05-31T11:36:51.359Z,100038.25
2018-05-31T11:39:18.819Z,100039.37
2018-05-31T11:41:46.288Z,100044.60
2018-05-31T11:44:13.756Z,100040.23
2018-05-31T11:46:41.228Z,100028.00
2018-05-31T11:49:08.836Z,100026.59
2018-05-31T11:51:36.288Z,100032.08
2018-05-31T11:54:03.737Z,100027.97
2018-05-31T11:56:31.209Z,100025.84
2018-05-31T11:58:58.655Z,100028.20
2018-05-31T12:01:26.163Z,100030.75
2018-05-31T12:03:53.607Z,100021.58
2018-05-31T12:06:21.057Z,100024.00
2018-05-31T12:08:48.519Z,100020.11
2018-05-31T12:11:15.997Z,100021.52
2018-05-31T12:13:43.484Z,100022.75
2018-05-31T12:16:10.942Z,100014.72
2018-05-31T12:18:38.396Z,100017.47
2018-05-31T12:21:05.868Z,100019.16
2018-05-31T12:23:33.336Z,100017.85
2018-05-31T12:26:00.942Z,100016.36
2018-05-31T12:28:28.400Z,100027.44
2018-05-31T12:30:55.856Z,100022.33
2018-05-31T12:33:23.339Z,100026.02
2018-05-31T12:35:50.794Z,100028.02
2018-05-31T12:38:18.612Z,100022.38
2018-05-31T12:40:46.063Z,100026.31
2018-05-31T12:43:13.535Z,100026.03
2018-05-31T12:45:41.021Z,100023.52
2018-05-31T12:48:08.475Z,100021.14
2018-05-31T12:50:35.957Z,100017.89
2018-05-31T12:53:03.419Z,100014.94
2018-05-31T12:55:30.868Z,100005.98
2018-05-31T12:57:58.348Z,100012.81
2018-05-31T13:00:25.796Z,100014.69
2018-05-31T13:02:53.351Z,100012.39
2018-05-31T13:05:20.796Z,100018.34
2018-05-31T13:07:48.241Z,100016.70
2018-05-31T13:10:15.728Z,100008.74
2018-05-31T13:12:43.179Z,100006.81
2018-05-31T13:15:10.890Z,100006.05
2018-05-31T13:17:38.336Z,100004.57
2018-05-31T13:20:05.810Z,100002.03
2018-05-31T13:22:33.280Z,99998.41
2018-05-31T13:25:00.740Z,100000.02
2018-05-31T13:27:28.432Z,99996.52
2018-05-31T13:29:55.878Z,99988.48
2018-05-31T13:32:23.320Z,99992.17
2018-05-31T13:34:50.784Z,99986.01
2018-05-31T13:37:18.247Z,99982.31
2018-05-31T13:39:45.716Z,99977.17
2018-05-31T13:42:13.173Z,99970.84
2018-05-31T13:44:40.611Z,99974.99
2018-05-31T13:47:08.095Z,99974.07
2018-05-31T13:49:35.564Z,99972.41
2018-05-31T13:52:03.179Z,99967.24
2018-05-31T13:54:30.630Z,99973.42
2018-05-31T13:56:58.264Z,99969.50
2018-05-31T13:59:25.726Z,99962.61
2018-05-31T14:01:53.165Z,99956.50
2018-05-31T14:04:20.835Z,99958.10
2018-05-31T14:06:48.275Z,99960.28
2018-05-31T14:09:15.720Z,99952.80
2018-05-31T14:11:43.180Z,99957.02
2018-05-31T14:14:10.642Z,99952.80
2018-05-31T14:16:38.145Z,99950.12
2018-05-31T14:19:05.612Z,99951.17
2018-05-31T14:21:33.055Z,99948.59
2018-05-31T14:24:00.520Z,99958.36
2018-05-31T14:26:27.962Z,99958.75
2018-05-31T14:28:55.429Z,99956.66
2018-05-31T14:31:22.873Z,99963.57
2018-05-31T14:33:50.320Z,99960.14
2018-05-31T14:36:17.787Z,99967.11
2018-05-31T14:38:45.252Z,99971.50
2018-05-31T14:41:12.924Z,99965.42
2018-05-31T14:43:40.364Z,99970.53
2018-05-31T14:46:07.807Z,99966.77
2018-05-31T14:48:35.290Z,99965.05
2018-05-31T14:51:02.752Z,99964.08
2018-05-31T14:53:30.581Z,99967.56
2018-05-31T14:55:58.024Z,99972.53
2018-05-31T14:58:25.472Z,99971.64
2018-05-31T15:00:52.940Z,99973.78
2018-05-31T15:03:20.391Z,99981.48
2018-05-31T15:05:48.036Z,99976.80
2018-05-31T15:08:15.483Z,99972.86
2018-05-31T15:10:42.929Z,99971.75
2018-05-31T15:13:11.137Z,99965.81
2018-05-31T15:15:38.581Z,99965.23
2018-05-31T15:18:06.323Z,99959.20
2018-05-31T15:20:33.768Z,99956.88
2018-05-31T15:23:01.232Z,99960.34
2018-05-31T15:25:28.859Z,99964.36
2018-05-31T15:27:56.304Z,99968.61
2018-05-31T15:30:23.916Z,99966.20
2018-05-31T15:32:51.376Z,99965.59
2018-05-31T15:35:18.816Z,99960.41
2018-05-31T15:37:46.280Z,99958.57
2018-05-31T15:40:13.727Z,99953.34
2018-05-31T15:42:41.215Z,99945.91
2018-05-31T15:45:08.668Z,99943.52
2018-05-31T15:47:36.108Z,99941.02
2018-05-31T15:50:03.572Z,99942.08
2018-05-31T15:52:31.016Z,99945.95
2018-05-31T15:54:58.684Z,99943.55
2018-05-31T15:57:26.135Z,99943.67
2018-05-31T15:59:53.579Z,99932.66
2018-05-31T16:02:21.045Z,99921.88
2018-05-31T16:04:48.487Z,99917.16
2018-05-31T16:07:16.076Z,99918.63
2018-05-31T16:09:43.515Z,99910.39
2018-05-31T16:12:10.960Z,99909.61
2018-05-31T16:14:38.430Z,99899.31
2018-05-31T16:17:05.884Z,99896.94
2018-05-31T16:19:33.472Z,99900.96
2018-05-31T16:22:00.931Z,99904.73
2018-05-31T16:24:28.385Z,99909.94
2018-05-31T16:26:55.855Z,99914.77
2018-05-31T16:29:23.307Z,99903.98
2018-05-31T16:31:50.789Z,99906.09
2018-05-31T16:34:18.227Z,99911.74
2018-05-31T16:36:45.684Z,99917.53
2018-05-31T16:39:13.156Z,99913.70
2018-05-31T16:41:40.620Z,99915.43
2018-05-31T16:44:08.128Z,99914.70
2018-05-31T16:46:35.571Z,99913.84
2018-05-31T16:49:03.017Z,99914.40
2018-05-31T16:51:30.484Z,99916.40
2018-05-31T16:53:58.012Z,99915.55
2018-05-31T16:56:25.504Z,99917.86
2018-05-31T16:58:52.941Z,99916.50
2018-05-31T17:01:20.388Z,99912.31
2018-05-31T17:03:47.848Z,99925.29
2018-05-31T17:06:15.291Z,99926.41
2018-05-31T17:08:42.763Z,99930.07
2018-05-31T17:11:10.212Z,99943.09
2018-05-31T17:13:37.655Z,99941.14
2018-05-31T17:16:05.118Z,99931.44
2018-05-31T17:18:32.591Z,99928.69
2018-05-31T17:21:00.412Z,99928.91
2018-05-31T17:23:27.887Z,99916.91
2018-05-31T17:25:55.333Z,99909.73
2018-05-31T17:28:22.825Z,99919.66
2018-05-31T17:30:50.275Z,99924.86
2018-05-31T17:33:17.771Z,99930.11
2018-05-31T17:35:45.221Z,99927.27
2018-05-31T17:38:12.680Z,99913.14
2018-05-31T17:40:40.145Z,99905.98
2018-05-31T17:43:07.590Z,99906.12
2018-05-31T17:45:35.070Z,99908.61
2018-05-31T17:48:02.515Z,99918.09
2018-05-31T17:50:29.956Z,99914.88
2018-05-31T17:52:57.421Z,99915.13
2018-05-31T17:55:24.881Z,99919.30
2018-05-31T17:57:52.363Z,99913.84
2018-05-31T18:00:19.804Z,99914.77
2018-05-31T18:02:47.244Z,99906.88
2018-05-31T18:05:14.708Z,99904.23
2018-05-31T18:07:42.151Z,99901.95
2018-05-31T18:10:09.620Z,99898.70
2018-05-31T18:12:37.060Z,99900.06
2018-05-31T18:15:04.500Z,99900.20
2018-05-31T18:17:31.967Z,99902.30
2018-05-31T18:19:59.408Z,99908.79
2018-05-31T18:22:26.883Z,99912.97
2018-05-31T18:24:54.332Z,99912.03
2018-05-31T18:27:21.783Z,99922.39
2018-05-31T18:29:49.252Z,99924.63
2018-05-31T18:32:16.701Z,99934.72
2018-05-31T18:34:44.619Z,99945.89
2018-05-31T18:37:12.084Z,99942.37
2018-05-31T18:39:39.525Z,99957.18
2018-05-31T18:42:06.996Z,99955.89
2018-05-31T18:44:34.445Z,99957.99
2018-05-31T18:47:02.163Z,99968.59
2018-05-31T18:49:29.621Z,99971.86
2018-05-31T18:51:57.064Z,99973.79
2018-05-31T18:54:24.530Z,99971.45
2018-05-31T18:56:52.097Z,99964.70
2018-05-31T18:59:19.774Z,99970.50
2018-05-31T19:01:47.232Z,99966.72
2018-05-31T19:04:14.699Z,99969.06
2018-05-31T19:06:42.533Z,99967.77
2018-05-31T19:09:15.717Z,99972.00
2018-05-31T19:11:43.307Z,99970.01
2018-05-31T19:14:10.753Z,99969.24
2018-05-31T19:16:38.200Z,99977.67
2018-05-31T19:19:11.360Z,99981.22
2018-05-31T19:21:38.812Z,99980.90
2018-05-31T19:24:11.987Z,99986.04
2018-05-31T19:26:39.428Z,99984.45
2018-05-31T19:29:06.889Z,99991.96
2018-05-31T19:31:34.353Z,99993.17
2018-05-31T19:34:01.796Z,100003.25
2018-05-31T19:36:34.888Z,100001.68
2018-05-31T19:39:02.349Z,100016.70
2018-05-31T19:41:29.904Z,100016.21
2018-05-31T19:44:02.933Z,100028.00
2018-05-31T19:46:30.424Z,100031.50
2018-05-31T19:48:57.872Z,100039.53
2018-05-31T19:51:30.891Z,100043.45
2018-05-31T19:53:58.359Z,100057.59
2018-05-31T19:56:25.809Z,100058.02
2018-05-31T19:58:59.091Z,100053.52
2018-05-31T20:01:32.220Z,100052.81
2018-05-31T20:03:59.764Z,100048.29
2018-05-31T20:06:27.246Z,100043.83
2018-05-31T20:08:54.779Z,100035.62
2018-05-31T20:11:22.292Z,100040.69
2018-05-31T20:16:31.011Z,100040.61
2018-05-31T20:18:58.493Z,100039.23
2018-05-31T20:21:26.360Z,100032.49
2018-05-31T20:23:53.816Z,100016.70
2018-05-31T20:26:21.273Z,100013.51
2018-05-31T20:28:49.168Z,100000.61
2018-05-31T20:31:16.621Z,99996.01
2018-05-31T20:33:44.530Z,99983.98
2018-05-31T20:36:11.981Z,99974.30
2018-05-31T20:38:39.442Z,99962.41
2018-05-31T20:41:06.936Z,99967.52
2018-05-31T20:43:34.382Z,99970.98
2018-05-31T20:46:01.877Z,99979.94
2018-05-31T20:48:29.329Z,99972.34
2018-05-31T20:50:56.779Z,99970.03
2018-05-31T20:53:24.240Z,99968.23
2018-05-31T20:55:51.728Z,99972.56
2018-05-31T20:58:19.310Z,99974.80
2018-05-31T21:00:46.775Z,99979.97
2018-05-31T21:03:14.232Z,99987.72
2018-05-31T21:05:41.708Z,99995.55
2018-05-31T21:08:09.155Z,100010.33
2018-05-31T21:10:36.753Z,100017.05
2018-05-31T21:13:04.212Z,100018.77
2018-05-31T21:15:31.663Z,100007.25
2018-05-31T21:17:59.135Z,100012.75
2018-05-31T21:20:26.593Z,100013.58
2018-05-31T21:22:54.154Z,100005.39
2018-05-31T21:25:21.527Z,100002.78
2018-05-31T21:27:48.977Z,100003.81
2018-05-31T21:30:16.447Z,100003.95
2018-05-31T21:32:43.896Z,99990.64
2018-05-31T21:35:11.547Z,99986.19
2018-05-31T21:37:38.992Z,99988.17
2018-05-31T21:40:06.436Z,99974.31
2018-05-31T21:42:33.909Z,99966.61
2018-05-31T21:45:01.413Z,99957.28
2018-05-31T21:47:29.103Z,99941.64
2018-05-31T21:49:56.547Z,99949.92
2018-05-31T21:52:23.994Z,99951.05
2018-05-31T21:54:51.460Z,99946.69
2018-05-31T21:57:18.920Z,99947.60
2018-05-31T21:59:46.556Z,99949.63
2018-05-31T22:02:13.999Z,99949.20
2018-05-31T22:04:41.444Z,99949.29
2018-05-31T22:07:08.915Z,99962.48
2018-05-31T22:09:36.367Z,99972.47
2018-05-31T22:12:04.029Z,99971.98
2018-05-31T22:14:31.479Z,99965.79
2018-05-31T22:16:58.920Z,99962.27
2018-05-31T22:19:26.380Z,99955.03
2018-05-31T22:21:53.844Z,99952.24
2018-05-31T22:24:21.571Z,99943.95
2018-05-31T22:26:49.024Z,99927.52
2018-05-31T22:29:16.467Z,99923.20
2018-05-31T22:31:43.936Z,99934.50
2018-05-31T22:34:11.380Z,99942.19
2018-05-31T22:36:39.017Z,99944.51
2018-05-31T22:39:06.416Z,99939.64
2018-05-31T22:41:33.861Z,99936.61
2018-05-31T22:44:01.373Z,99934.89
2018-05-31T22:46:28.816Z,99940.36
2018-05-31T22:48:56.460Z,99948.59
2018-05-31T22:51:23.904Z,99953.60
2018-05-31T22:53:51.344Z,99957.42
2018-05-31T22:56:18.803Z,99964.95
2018-05-31T22:58:46.254Z,99965.20
2018-05-31T23:01:13.920Z,99964.00
2018-05-31T23:03:41.363Z,99960.19
2018-05-31T23:06:08.816Z,99955.33
2018-05-31T23:08:42.208Z,99949.16
2018-05-31T23:11:09.652Z,99947.62
2018-05-31T23:13:37.399Z,99935.19
2018-05-31T23:16:04.875Z,99940.19
2018-05-31T23:18:32.324Z,99941.87
2018-05-31T23:20:59.783Z,99936.50
2018-05-31T23:23:27.236Z,99929.70
2018-05-31T23:25:55.032Z,99915.20
2018-05-31T23:28:22.476Z,99912.98
2018-05-31T23:30:49.932Z,99918.01
2018-05-31T23:33:17.392Z,99939.94
2018-05-31T23:35:44.833Z,99963.50
2018-05-31T23:38:12.508Z,99964.97
2018-05-31T23:40:39.959Z,99975.20
2018-05-31T23:43:07.404Z,99974.81
2018-05-31T23:45:34.867Z,99980.08
2018-05-31T23:48:02.324Z,99971.73
2018-05-31T23:50:29.966Z,99976.99
2018-05-31T23:52:57.405Z,99978.05
2018-05-31T23:55:24.882Z,99981.58
2018-05-31T23:57:52.339Z,99983.95
